Time;durP1;ratioP1;P1;durP2;ratioP2;P2;SDS_P1;SDS_P2;PMS_P1;PMS_P2;Temp;Humidity;BMP_temperature;BMP_pressure;BME280_temperature;BME280_humidity;BME280_pressure;Samples;Min_cycle;Max_cycle;Signal;HPM_P1;HPM_P2
2022/01/12 00:02:11;;;;;;;;;;;;;;;-1.64;94.51;102430.91;5012171;28;1311;-89
2022/01/12 00:04:36;;;;;;;;;;;;;;;-1.69;94.16;102421.59;5014395;28;1525;-90
2022/01/12 00:07:01;;;;;;;;;;;;;;;-1.68;94.20;102431.34;4983305;28;1412;-90
2022/01/12 00:09:27;;;;;;;;;;;;;;;-1.64;94.25;102424.69;4974115;28;1664;-90
2022/01/12 00:11:52;;;;;;;;;;;;;;;-1.67;94.32;102436.56;4974201;28;1249;-89
2022/01/12 00:14:17;;;;;;;;;;;;;;;-1.72;94.04;102427.31;4974248;28;1903;-90
2022/01/12 00:16:47;;;;;;;;;;;;;;;-1.72;94.27;102430.00;4991850;28;1529;-91
2022/01/12 00:19:12;;;;;;;;;;;;;;;-1.76;94.42;102429.44;4994172;28;1205;-90
2022/01/12 00:21:38;;;;;;;;;;;;;;;-1.79;94.12;102428.91;4994184;28;1291;-92
2022/01/12 00:24:03;;;;;;;;;;;;;;;-1.91;93.75;102434.50;4993095;28;1605;-90
2022/01/12 00:34:24;;;;;;;;;;;;;;;-1.68;93.76;102425.97;4974988;28;1954;-88
2022/01/12 00:36:49;;;;;;;;;;;;;;;-1.71;93.56;102420.94;4973888;28;1323;-91
2022/01/12 00:39:15;;;;;;;;;;;;;;;-1.69;93.96;102426.97;4978306;28;1620;-88
2022/01/12 00:41:41;;;;;;;;;;;;;;;-1.61;93.66;102429.75;4993260;28;1429;-90
2022/01/12 00:44:09;;;;;;;;;;;;;;;-1.63;93.62;102442.50;4993223;28;1327;-89
2022/01/12 00:46:34;;;;;;;;;;;;;;;-1.67;93.50;102435.72;4993552;28;1248;-91
2022/01/12 00:49:00;;;;;;;;;;;;;;;-1.76;93.45;102432.13;4994149;28;1060;-90
2022/01/12 00:51:26;;;;;;;;;;;;;;;-1.73;93.33;102434.50;4988805;28;1458;-89
2022/01/12 00:53:52;;;;;;;;;;;;;;;-1.74;93.84;102434.66;4973616;28;1883;-90
2022/01/12 00:56:17;;;;;;;;;;;;;;;-1.63;93.82;102431.75;4986656;28;1504;-89
2022/01/12 00:58:42;;;;;;;;;;;;;;;-1.58;93.53;102416.88;4995092;28;1507;-89
2022/01/12 01:01:07;;;;;;;;;;;;;;;-1.52;93.57;102410.03;4976664;28;1193;-88
2022/01/12 01:03:34;;;;;;;;;;;;;;;-1.51;93.77;102409.03;4992663;28;1724;-90
2022/01/12 01:05:59;;;;;;;;;;;;;;;-1.50;93.72;102416.09;4996324;28;1334;-90
2022/01/12 01:08:24;;;;;;;;;;;;;;;-1.55;93.54;102415.72;5012636;28;1259;-89
2022/01/12 01:10:51;;;;;;;;;;;;;;;-1.56;93.46;102414.03;5012636;28;990;-89
2022/01/12 01:13:22;;;;;;;;;;;;;;;-1.62;93.83;102414.66;4993410;28;1906;-89
2022/01/12 01:26:28;;;;;;;;;;;;;;;-1.65;93.76;102414.94;5007129;28;1563;-91
2022/01/12 01:28:54;;;;;;;;;;;;;;;-1.55;93.62;102408.50;4977508;28;1228;-91
2022/01/12 01:31:20;;;;;;;;;;;;;;;-1.63;93.42;102410.28;4977467;28;1085;-91
2022/01/12 01:33:46;;;;;;;;;;;;;;;-1.59;93.43;102411.63;4977240;28;1894;-88
2022/01/12 01:36:12;;;;;;;;;;;;;;;-1.56;93.71;102411.34;4977058;28;1343;-90
2022/01/12 01:38:38;;;;;;;;;;;;;;;-1.53;93.71;102417.22;4989506;28;1433;-89
2022/01/12 01:41:03;;;;;;;;;;;;;;;-1.52;93.72;102424.28;4997820;28;859;-88
2022/01/12 01:54:12;;;;;;;;;;;;;;;-1.58;93.72;102418.69;4984030;28;1886;-90
2022/01/12 01:56:37;;;;;;;;;;;;;;;-1.55;93.79;102426.47;4987329;28;1477;-91
2022/01/12 01:59:02;;;;;;;;;;;;;;;-1.57;93.70;102418.56;4982602;28;1800;-90
2022/01/12 02:01:28;;;;;;;;;;;;;;;-1.51;93.95;102419.75;4976627;28;1339;-88
2022/01/12 02:03:55;;;;;;;;;;;;;;;-1.45;93.86;102437.97;4977867;28;808;-91
2022/01/12 02:06:21;;;;;;;;;;;;;;;-1.43;93.65;102454.75;4976511;28;1221;-90
2022/01/12 02:08:46;;;;;;;;;;;;;;;-1.48;93.70;102451.69;4976686;28;1367;-90
2022/01/12 02:11:12;;;;;;;;;;;;;;;-1.57;93.60;102448.09;4977744;28;1046;-89
2022/01/12 02:13:37;;;;;;;;;;;;;;;-1.55;93.54;102445.25;4995957;28;1886;-90
2022/01/12 02:16:02;;;;;;;;;;;;;;;-1.49;93.55;102451.84;4991274;28;1451;-90
2022/01/12 02:35:20;;;;;;;;;;;;;;;-1.49;94.06;102458.06;4976135;28;1986;-89
2022/01/12 02:40:24;;;;;;;;;;;;;;;-1.35;94.27;102464.72;4979130;28;1541;-90
2022/01/12 02:43:02;;;;;;;;;;;;;;;-1.32;94.03;102462.59;4995589;28;1363;-89
2022/01/12 02:51:08;;;;;;;;;;;;;;;-1.31;94.39;102479.53;4996871;28;669;-92
2022/01/12 02:53:41;;;;;;;;;;;;;;;-1.29;94.19;102467.66;4995074;28;1898;-90
2022/01/12 02:56:07;;;;;;;;;;;;;;;-1.26;94.33;102474.53;4995175;28;1263;-90
2022/01/12 02:58:33;;;;;;;;;;;;;;;-1.26;94.05;102478.06;4995089;28;1196;-91
2022/01/12 03:01:27;;;;;;;;;;;;;;;-1.30;94.38;102471.34;4996369;28;835;-91
2022/01/12 03:03:51;;;;;;;;;;;;;;;-1.27;94.18;102471.00;4996313;28;1196;-90
2022/01/12 03:06:21;;;;;;;;;;;;;;;-1.21;94.06;102478.47;4989052;28;1512;-90
2022/01/12 03:08:47;;;;;;;;;;;;;;;-1.24;94.29;102480.59;4976360;28;1601;-90
2022/01/12 03:11:13;;;;;;;;;;;;;;;-1.22;94.45;102474.09;4975668;28;1225;-90
2022/01/12 03:13:39;;;;;;;;;;;;;;;-1.24;94.30;102465.34;4975423;28;1971;-90
2022/01/12 03:16:12;;;;;;;;;;;;;;;-1.25;94.37;102465.47;4978914;28;1587;-89
2022/01/12 03:18:38;;;;;;;;;;;;;;;-1.21;94.52;102470.41;4994978;28;1193;-89
2022/01/12 03:21:03;;;;;;;;;;;;;;;-1.21;94.32;102467.72;4996128;28;1052;-90
2022/01/12 03:23:28;;;;;;;;;;;;;;;-1.17;94.49;102469.09;4993675;28;1573;-91
2022/01/12 03:25:54;;;;;;;;;;;;;;;-1.13;94.59;102474.16;4994398;28;1273;-90
2022/01/12 03:28:19;;;;;;;;;;;;;;;-1.19;94.43;102479.13;4975518;28;1317;-91
2022/01/12 03:31:09;;;;;;;;;;;;;;;-1.25;94.88;102481.59;4984994;28;1625;-90
2022/01/12 03:38:46;;;;;;;;;;;;;;;-1.20;94.75;102485.53;4996197;28;583;-91
2022/01/12 03:41:12;;;;;;;;;;;;;;;-1.18;94.91;102477.28;4994488;28;743;-90
2022/01/12 03:43:37;;;;;;;;;;;;;;;-1.17;95.09;102482.50;4978567;28;1743;-90
2022/01/12 03:46:02;;;;;;;;;;;;;;;-1.11;94.83;102478.38;4991593;28;1660;-90
2022/01/12 03:48:27;;;;;;;;;;;;;;;-1.17;94.86;102469.09;4986644;28;1544;-90
2022/01/12 03:50:55;;;;;;;;;;;;;;;-1.13;95.17;102460.72;4994252;28;831;-90
2022/01/12 03:53:20;;;;;;;;;;;;;;;-1.08;94.85;102461.09;4995143;28;1887;-90
2022/01/12 03:55:45;;;;;;;;;;;;;;;-1.14;94.75;102462.56;4991799;28;1556;-90
2022/01/12 03:58:11;;;;;;;;;;;;;;;-1.17;94.91;102450.28;4984331;28;1465;-88
2022/01/12 04:00:36;;;;;;;;;;;;;;;-1.12;95.19;102446.28;4977648;28;1540;-91
2022/01/12 04:03:04;;;;;;;;;;;;;;;-1.09;95.33;102440.59;4984312;28;1660;-90
2022/01/12 04:08:20;;;;;;;;;;;;;;;-1.11;94.97;102440.75;4995514;28;913;-89
2022/01/12 04:10:48;;;;;;;;;;;;;;;-1.14;95.17;102433.00;4993890;28;1351;-90
2022/01/12 04:13:14;;;;;;;;;;;;;;;-1.19;95.14;102435.31;4993769;28;1957;-89
2022/01/12 04:15:42;;;;;;;;;;;;;;;-1.11;95.25;102430.00;4993763;28;1236;-90
2022/01/12 04:18:07;;;;;;;;;;;;;;;-1.09;95.29;102436.06;4994036;28;1343;-90
2022/01/12 04:20:32;;;;;;;;;;;;;;;-1.15;95.11;102432.16;4993904;28;1188;-90
2022/01/12 04:25:41;;;;;;;;;;;;;;;-1.20;95.12;102439.00;4995133;28;1194;-89
2022/01/12 04:28:06;;;;;;;;;;;;;;;-1.20;95.22;102434.47;4979500;28;1488;-89
2022/01/12 04:30:32;;;;;;;;;;;;;;;-1.23;95.43;102442.00;4987011;28;1671;-90
2022/01/12 04:32:57;;;;;;;;;;;;;;;-1.27;95.28;102444.13;4993263;28;1894;-90
2022/01/12 05:37:24;;;;;;;;;;;;;;;-0.85;95.79;102492.66;5053406;28;1268;-90
2022/01/12 05:39:49;;;;;;;;;;;;;;;-0.83;95.98;102487.13;5037610;28;1262;-90
2022/01/12 05:42:23;;;;;;;;;;;;;;;-0.84;95.90;102486.28;5040068;28;1104;-90
2022/01/12 05:44:48;;;;;;;;;;;;;;;-0.83;95.82;102484.44;5032905;28;1344;-92
2022/01/12 05:53:42;;;;;;;;;;;;;;;-0.77;95.98;102503.47;5014013;28;1882;-92
2022/01/12 06:02:59;;;;;;;;;;;;;;;-0.87;96.17;102516.19;5015159;28;911;-92
2022/01/12 06:05:29;;;;;;;;;;;;;;;-0.83;96.36;102511.34;4996680;28;1224;-91
2022/01/12 06:07:54;;;;;;;;;;;;;;;-0.80;95.91;102505.66;5019661;28;1259;-90
2022/01/12 06:10:23;;;;;;;;;;;;;;;-0.82;96.16;102507.66;5049631;28;1517;-92
2022/01/12 06:12:49;;;;;;;;;;;;;;;-0.79;96.20;102510.03;5060481;28;1347;-91
2022/01/12 13:07:24;;;;;;;;;;;;;;;1.53;96.13;102664.81;1445392;23;2637;-86
2022/01/12 13:09:49;;;;;;;;;;;;;;;1.55;96.18;102662.78;5012266;28;1181;-89
2022/01/12 13:12:14;;;;;;;;;;;;;;;1.56;95.99;102661.75;4985029;28;1186;-90
2022/01/12 13:14:44;;;;;;;;;;;;;;;1.60;96.06;102664.97;4976944;28;1918;-90
2022/01/12 13:17:09;;;;;;;;;;;;;;;1.63;96.12;102657.38;4994382;28;971;-90
2022/01/12 13:22:29;;;;;;;;;;;;;;;1.67;96.05;102637.13;4994758;28;1343;-90
2022/01/12 13:24:55;;;;;;;;;;;;;;;1.68;96.07;102644.22;4977250;28;1377;-89
2022/01/12 13:27:21;;;;;;;;;;;;;;;1.70;96.17;102646.75;4977027;28;1336;-89
2022/01/12 13:29:47;;;;;;;;;;;;;;;1.72;96.11;102644.72;4976985;28;1300;-90
2022/01/12 13:32:13;;;;;;;;;;;;;;;1.77;96.16;102645.06;4976902;28;1263;-89
2022/01/12 13:34:42;;;;;;;;;;;;;;;1.79;96.19;102654.66;4976787;28;1898;-90
2022/01/12 13:37:12;;;;;;;;;;;;;;;1.77;96.10;102651.31;4977015;28;1222;-89
2022/01/12 13:39:37;;;;;;;;;;;;;;;1.76;96.07;102657.72;4977018;28;1578;-89
2022/01/12 13:42:03;;;;;;;;;;;;;;;1.77;95.88;102653.16;4976913;28;1250;-90
2022/01/12 13:44:28;;;;;;;;;;;;;;;1.75;95.94;102661.44;4976764;28;1194;-90
2022/01/12 13:47:45;;;;;;;;;;;;;;;1.76;96.13;102667.69;4976964;28;1245;-90
2022/01/12 13:49:59;;;;;;;;;;;;;;;1.75;96.23;102666.81;4983574;28;1122;-89
2022/01/12 13:52:24;;;;;;;;;;;;;;;1.75;96.38;102663.28;4976797;28;1369;-90
2022/01/12 13:54:51;;;;;;;;;;;;;;;1.74;96.20;102665.13;4976956;28;1969;-89
2022/01/12 13:57:18;;;;;;;;;;;;;;;1.76;96.25;102660.41;4976565;28;1182;-90
2022/01/12 13:59:47;;;;;;;;;;;;;;;1.81;96.24;102655.34;4976930;28;1253;-89
2022/01/12 14:02:13;;;;;;;;;;;;;;;1.86;96.50;102660.25;4976333;28;1380;-89
2022/01/12 14:04:42;;;;;;;;;;;;;;;1.83;96.43;102653.31;4977098;28;1257;-90
2022/01/12 14:07:11;;;;;;;;;;;;;;;1.85;96.47;102656.69;4976774;28;1320;-90
2022/01/12 14:09:40;;;;;;;;;;;;;;;1.86;96.32;102661.09;4976567;28;1514;-90
2022/01/12 14:12:09;;;;;;;;;;;;;;;1.86;96.57;102654.84;4976521;28;1288;-89
2022/01/12 14:14:50;;;;;;;;;;;;;;;1.81;96.50;102663.44;4976783;28;1969;-89
2022/01/12 14:17:27;;;;;;;;;;;;;;;1.79;96.51;102670.84;4976795;28;1210;-91
2022/01/12 14:20:22;;;;;;;;;;;;;;;1.80;96.58;102671.72;4976088;28;1735;-89
2022/01/12 14:22:51;;;;;;;;;;;;;;;1.82;96.54;102658.88;4961338;28;1381;-90
2022/01/12 14:25:19;;;;;;;;;;;;;;;1.82;96.39;102667.84;4976493;28;1420;-89
2022/01/12 14:28:02;;;;;;;;;;;;;;;1.81;96.85;102663.44;4975918;28;1690;-90
2022/01/12 14:30:50;;;;;;;;;;;;;;;1.79;96.75;102672.72;4971840;28;1333;-90
2022/01/12 14:33:20;;;;;;;;;;;;;;;1.83;96.69;102674.06;4997237;28;1894;-90
2022/01/12 14:35:49;;;;;;;;;;;;;;;1.79;96.64;102662.75;4979762;28;1732;-90
2022/01/12 14:38:16;;;;;;;;;;;;;;;1.81;96.83;102668.84;4979385;28;1384;-89
2022/01/12 14:40:43;;;;;;;;;;;;;;;1.79;96.63;102668.16;4997027;28;1158;-90
2022/01/12 14:43:13;;;;;;;;;;;;;;;1.81;96.80;102676.09;4994562;28;1417;-90
2022/01/12 14:45:47;;;;;;;;;;;;;;;1.78;96.71;102681.84;4963120;28;1321;-90
2022/01/12 14:48:22;;;;;;;;;;;;;;;1.78;96.66;102680.00;4995688;28;1687;-89
2022/01/12 14:50:48;;;;;;;;;;;;;;;1.78;96.91;102685.41;4979186;28;1336;-89
2022/01/12 14:53:13;;;;;;;;;;;;;;;1.83;96.86;102684.88;4979316;28;1327;-91
2022/01/12 14:55:38;;;;;;;;;;;;;;;1.82;96.88;102684.03;4965416;28;1946;-91
2022/01/12 14:58:06;;;;;;;;;;;;;;;1.79;96.73;102686.22;4965042;28;1649;-90
2022/01/12 15:00:49;;;;;;;;;;;;;;;1.78;96.58;102693.50;4980185;28;1767;-91
2022/01/12 15:03:14;;;;;;;;;;;;;;;1.76;96.95;102690.13;4978859;28;1704;-91
2022/01/12 15:05:41;;;;;;;;;;;;;;;1.76;97.11;102691.97;4980117;28;1374;-92
2022/01/12 15:08:07;;;;;;;;;;;;;;;1.72;96.93;102704.09;4979711;28;1321;-91
2022/01/12 15:10:51;;;;;;;;;;;;;;;1.71;96.82;102686.22;4978788;28;962;-91
2022/01/12 15:13:26;;;;;;;;;;;;;;;1.66;97.04;102678.63;4979415;28;1186;-90
2022/01/12 15:15:52;;;;;;;;;;;;;;;1.64;96.90;102688.75;4978835;28;1280;-89
2022/01/12 15:18:21;;;;;;;;;;;;;;;1.62;97.43;102682.66;4978962;28;1367;-90
2022/01/12 15:20:47;;;;;;;;;;;;;;;1.62;96.99;102679.13;4978976;28;1471;-90
2022/01/12 15:23:12;;;;;;;;;;;;;;;1.62;97.15;102698.88;4978465;28;1555;-88
2022/01/12 15:25:38;;;;;;;;;;;;;;;1.64;97.51;102690.59;4979175;28;1190;-90
2022/01/12 15:28:06;;;;;;;;;;;;;;;1.64;97.24;102696.84;4979127;28;1532;-90
2022/01/12 15:30:32;;;;;;;;;;;;;;;1.63;97.39;102697.00;4979369;28;1253;-90
2022/01/12 15:43:22;;;;;;;;;;;;;;;;;;;;;
2022/01/12 15:49:30;;;;;;;;;;;;;;;1.75;96.87;102736.19;4898220;29;941;-90
2022/01/12 16:01:45;;;;;;;;;;;;;;;;;;;;;
2022/01/12 16:08:15;;;;;;;;;;;;;;;;;;;;;
2022/01/12 16:10:58;;;;;;;;;;;;;;;1.66;97.14;102746.13;4904570;29;1234;-90
2022/01/12 16:13:28;;;;;;;;;;;;;;;1.66;96.94;102745.28;4919125;29;1907;-90
2022/01/12 16:15:54;;;;;;;;;;;;;;;1.64;96.91;102740.03;4931191;29;1249;-90
2022/01/12 16:18:38;;;;;;;;;;;;;;;1.60;96.95;102738.69;4924147;28;1256;-90
2022/01/12 16:33:46;;;;;;;;;;;;;;;;;;;;;
2022/01/12 16:36:42;;;;;;;;;;;;;;;1.64;96.69;102733.78;4948876;28;1360;-89
2022/01/12 16:39:28;;;;;;;;;;;;;;;1.66;97.01;102729.94;4936035;29;1326;-90
2022/01/12 16:42:16;;;;;;;;;;;;;;;1.67;96.90;102728.06;4961504;28;1418;-90
2022/01/12 16:44:41;;;;;;;;;;;;;;;1.66;96.79;102737.19;5004660;28;1259;-89
2022/01/12 16:47:48;;;;;;;;;;;;;;;1.68;96.86;102727.06;5006849;28;1193;-89
2022/01/12 16:50:13;;;;;;;;;;;;;;;1.67;96.78;102728.91;4999221;28;1285;-89
2022/01/12 16:52:44;;;;;;;;;;;;;;;1.64;96.78;102740.03;5016950;28;1217;-89
2022/01/12 16:55:09;;;;;;;;;;;;;;;1.62;96.67;102739.34;5017025;28;1950;-90
2022/01/12 16:57:34;;;;;;;;;;;;;;;1.66;96.96;102742.56;4985646;28;1312;-89
2022/01/12 17:00:13;;;;;;;;;;;;;;;1.64;96.70;102744.59;4993405;28;1198;-90
2022/01/12 17:02:42;;;;;;;;;;;;;;;1.64;96.87;102752.69;4993983;28;1174;-90
2022/01/12 17:05:07;;;;;;;;;;;;;;;1.62;96.51;102757.41;4977249;28;1202;-90
2022/01/12 17:07:33;;;;;;;;;;;;;;;1.62;96.95;102758.25;4977486;28;1332;-90
2022/01/12 17:10:19;;;;;;;;;;;;;;;;;;;;;
2022/01/12 17:19:49;;;;;;;;;;;;;;;;;;;;;
2022/01/12 18:03:14;;;;;;;;;;;;;;;1.61;96.28;102772.78;4973514;28;1217;-88
2022/01/12 18:05:40;;;;;;;;;;;;;;;1.61;96.05;102770.09;4960228;28;1371;-90
2022/01/12 18:08:05;;;;;;;;;;;;;;;1.61;96.51;102772.78;4960936;28;991;-90
2022/01/12 18:10:33;;;;;;;;;;;;;;;1.61;96.71;102770.09;4977387;28;1005;-90
2022/01/12 18:13:41;;;;;;;;;;;;;;;;;;;;;
2022/01/12 18:28:57;;;;;;;;;;;;;;;1.67;96.54;102776.66;4956383;28;862;-90
2022/01/12 18:34:38;;;;;;;;;;;;;;;1.64;96.04;102795.88;4955876;29;1910;-90
2022/01/12 18:37:09;;;;;;;;;;;;;;;1.61;96.30;102799.78;4940023;29;1404;-90
2022/01/12 19:12:35;;;;;;;;;;;;;;;1.66;96.37;102840.59;4914341;28;1369;-88
2022/01/12 19:38:26;;;;;;;;;;;;;;;1.75;95.97;102834.22;5014064;28;1184;-91
2022/01/12 19:41:24;;;;;;;;;;;;;;;;;;;;;
2022/01/12 19:43:50;;;;;;;;;;;;;;;1.80;95.69;102847.22;4995869;28;1194;-91
2022/01/12 19:46:16;;;;;;;;;;;;;;;1.77;95.85;102844.84;4976781;28;1190;-91
2022/01/12 19:48:47;;;;;;;;;;;;;;;1.72;95.74;102831.84;4978245;28;1256;-90
2022/01/12 19:51:31;;;;;;;;;;;;;;;1.69;95.96;102840.28;4978355;28;1350;-91
2022/01/12 19:54:09;;;;;;;;;;;;;;;1.71;95.85;102832.84;4978105;28;1923;-89
2022/01/12 19:56:57;;;;;;;;;;;;;;;1.71;95.56;102843.66;4978395;28;1245;-91
2022/01/12 19:59:25;;;;;;;;;;;;;;;1.68;95.80;102849.38;4975054;28;1175;-90
2022/01/12 20:01:54;;;;;;;;;;;;;;;1.70;95.50;102851.94;4995670;28;1169;-92
2022/01/12 20:04:19;;;;;;;;;;;;;;;1.69;95.49;102845.69;4978472;28;1258;-91
2022/01/12 20:06:45;;;;;;;;;;;;;;;1.75;95.47;102850.41;4978188;28;1327;-92
2022/01/12 20:09:21;;;;;;;;;;;;;;;1.79;95.45;102846.34;4978279;28;1353;-91
2022/01/12 20:11:46;;;;;;;;;;;;;;;1.79;95.30;102837.41;4977844;28;1396;-88
2022/01/12 20:14:18;;;;;;;;;;;;;;;1.76;95.55;102841.31;4994594;28;1914;-88
2022/01/12 20:16:53;;;;;;;;;;;;;;;1.76;95.15;102837.75;4977385;28;1273;-86
2022/01/12 20:22:02;;;;;;;;;;;;;;;1.76;94.89;102830.50;4994813;28;1404;-86
2022/01/12 20:24:28;;;;;;;;;;;;;;;1.80;94.70;102834.56;4968393;28;1328;-86
2022/01/12 20:26:58;;;;;;;;;;;;;;;1.78;94.58;102833.91;4976564;28;1326;-86
2022/01/12 20:29:24;;;;;;;;;;;;;;;1.73;94.43;102838.94;4994927;28;1073;-87
2022/01/12 20:31:49;;;;;;;;;;;;;;;1.71;94.55;102837.41;4994098;28;1349;-86
2022/01/12 20:34:16;;;;;;;;;;;;;;;1.68;94.77;102840.44;4977034;28;1899;-86
2022/01/12 20:36:42;;;;;;;;;;;;;;;1.67;94.81;102836.06;4976773;28;1206;-87
2022/01/12 20:39:07;;;;;;;;;;;;;;;1.68;94.58;102833.19;4994449;28;1002;-86
2022/01/12 20:41:33;;;;;;;;;;;;;;;1.65;94.28;102824.56;4976396;28;1364;-86
2022/01/12 20:44:03;;;;;;;;;;;;;;;1.71;94.27;102832.84;4977016;28;1315;-86
2022/01/12 20:46:29;;;;;;;;;;;;;;;1.72;94.39;102829.13;4975417;28;1365;-86
2022/01/12 20:48:55;;;;;;;;;;;;;;;1.74;94.26;102823.56;4977294;28;1342;-86
2022/01/12 20:51:21;;;;;;;;;;;;;;;1.69;94.28;102813.28;4977206;28;1238;-85
2022/01/12 20:53:51;;;;;;;;;;;;;;;1.68;94.06;102818.84;4977669;28;1894;-85
2022/01/12 20:56:16;;;;;;;;;;;;;;;1.65;94.45;102813.78;4977536;28;1328;-85
2022/01/12 20:58:41;;;;;;;;;;;;;;;1.57;94.29;102817.28;4994329;28;1281;-86
2022/01/12 21:01:06;;;;;;;;;;;;;;;1.54;94.02;102817.63;4977395;28;1203;-86
2022/01/12 21:03:31;;;;;;;;;;;;;;;1.52;94.35;102820.50;4976992;28;1331;-86
2022/01/12 21:05:57;;;;;;;;;;;;;;;1.48;94.26;102818.28;4977262;28;1277;-86
2022/01/12 21:08:23;;;;;;;;;;;;;;;1.42;94.11;102816.25;4976576;28;1288;-86
2022/01/12 21:10:48;;;;;;;;;;;;;;;1.45;94.38;102824.00;4977234;28;1483;-86
2022/01/12 21:13:14;;;;;;;;;;;;;;;1.47;94.37;102819.28;4964087;28;1447;-86
2022/01/12 21:15:43;;;;;;;;;;;;;;;1.42;94.10;102821.66;4979643;28;1902;-85
2022/01/12 21:18:08;;;;;;;;;;;;;;;1.37;94.18;102823.97;4977289;28;1300;-87
2022/01/12 21:20:33;;;;;;;;;;;;;;;1.28;94.24;102825.78;4994768;28;1025;-87
2022/01/12 21:22:58;;;;;;;;;;;;;;;1.19;94.47;102824.09;4994555;28;1196;-86
2022/01/12 21:25:24;;;;;;;;;;;;;;;1.18;94.40;102826.94;4977405;28;1535;-87
2022/01/12 21:27:49;;;;;;;;;;;;;;;1.14;94.54;102829.97;4994407;28;1165;-87
2022/01/12 21:30:14;;;;;;;;;;;;;;;1.13;94.63;102822.88;4994262;28;1069;-87
2022/01/12 21:32:39;;;;;;;;;;;;;;;1.13;94.71;102827.41;4976640;28;1332;-87
2022/01/12 21:35:04;;;;;;;;;;;;;;;1.09;94.49;102826.06;4976263;28;1949;-87
2022/01/12 21:37:46;;;;;;;;;;;;;;;1.02;94.60;102823.16;4994017;28;931;-87
2022/01/12 21:40:20;;;;;;;;;;;;;;;0.96;94.74;102826.50;4997868;28;851;-87
2022/01/12 21:42:46;;;;;;;;;;;;;;;0.83;94.65;102825.25;4997911;28;1256;-87
2022/01/12 21:45:13;;;;;;;;;;;;;;;0.82;94.63;102831.63;4998350;28;1395;-87
2022/01/12 21:47:38;;;;;;;;;;;;;;;0.81;94.76;102824.56;4986160;28;1281;-87
2022/01/12 21:50:03;;;;;;;;;;;;;;;0.77;94.59;102825.91;4997818;28;1032;-87
2022/01/12 21:52:28;;;;;;;;;;;;;;;0.78;94.63;102831.09;4980850;28;1363;-87
2022/01/12 21:54:53;;;;;;;;;;;;;;;0.71;94.61;102832.75;4977310;28;1957;-87
2022/01/12 21:57:19;;;;;;;;;;;;;;;0.66;94.73;102829.69;4966187;28;1480;-87
2022/01/12 21:59:45;;;;;;;;;;;;;;;0.67;94.57;102818.75;4995481;28;1425;-86
2022/01/12 22:02:10;;;;;;;;;;;;;;;0.53;94.64;102818.47;4996031;28;1358;-87
2022/01/12 22:04:35;;;;;;;;;;;;;;;0.40;94.75;102816.22;4987953;28;1816;-87
2022/01/12 22:07:00;;;;;;;;;;;;;;;0.50;94.67;102827.75;4980100;28;1814;-87
2022/01/12 22:09:25;;;;;;;;;;;;;;;0.47;94.74;102824.50;4976629;28;1149;-87
2022/01/12 22:11:51;;;;;;;;;;;;;;;0.56;94.61;102816.31;4977686;28;1169;-86
2022/01/12 22:14:17;;;;;;;;;;;;;;;0.66;94.63;102821.59;4961256;28;1961;-86
2022/01/12 22:16:44;;;;;;;;;;;;;;;0.64;94.40;102824.47;4977921;28;883;-87
2022/01/12 22:19:09;;;;;;;;;;;;;;;0.58;94.45;102819.72;4960486;28;1713;-86
2022/01/12 22:21:34;;;;;;;;;;;;;;;0.66;94.38;102827.00;4989341;28;1807;-87
2022/01/12 22:23:59;;;;;;;;;;;;;;;0.58;94.35;102833.19;4979585;28;1284;-87
2022/01/12 22:26:25;;;;;;;;;;;;;;;0.62;94.32;102831.00;4976002;28;1546;-86
2022/01/12 22:28:50;;;;;;;;;;;;;;;0.65;94.26;102819.91;4960250;28;1277;-87
2022/01/12 22:31:16;;;;;;;;;;;;;;;0.63;94.14;102822.75;4977311;28;1222;-87
2022/01/12 22:33:41;;;;;;;;;;;;;;;0.52;94.18;102830.25;4960192;28;1906;-87
2022/01/12 22:36:06;;;;;;;;;;;;;;;0.53;94.10;102824.72;4959927;28;1281;-87
2022/01/12 22:38:31;;;;;;;;;;;;;;;0.62;94.28;102823.75;4982839;28;1741;-87
2022/01/12 22:40:57;;;;;;;;;;;;;;;0.69;94.12;102818.56;4959923;28;1293;-87
2022/01/12 22:43:22;;;;;;;;;;;;;;;0.64;94.11;102820.91;4960040;28;1065;-87
2022/01/12 22:45:47;;;;;;;;;;;;;;;0.66;94.07;102829.69;4964838;28;1368;-87
2022/01/12 22:48:12;;;;;;;;;;;;;;;0.77;94.07;102821.31;4975284;28;1778;-87
2022/01/12 22:50:37;;;;;;;;;;;;;;;0.84;94.02;102824.25;4995392;28;1550;-87
2022/01/12 22:53:05;;;;;;;;;;;;;;;0.82;94.04;102828.94;4977363;28;1653;-87
2022/01/12 22:55:31;;;;;;;;;;;;;;;0.82;93.94;102832.50;4972851;28;1898;-87
2022/01/12 22:58:09;;;;;;;;;;;;;;;0.91;94.09;102825.28;4963404;28;1304;-88
2022/01/12 23:00:34;;;;;;;;;;;;;;;0.90;93.90;102820.91;4963444;28;1578;-87
2022/01/12 23:03:02;;;;;;;;;;;;;;;0.75;94.11;102829.59;4974397;28;1624;-87
2022/01/12 23:05:27;;;;;;;;;;;;;;;0.78;94.02;102820.31;4986216;28;1356;-88
2022/01/12 23:07:54;;;;;;;;;;;;;;;0.97;93.95;102806.63;4967394;28;1686;-87
2022/01/12 23:10:19;;;;;;;;;;;;;;;0.94;93.98;102823.09;4970857;28;1400;-87
2022/01/12 23:12:45;;;;;;;;;;;;;;;0.84;93.97;102818.84;4976458;28;1360;-87
2022/01/12 23:15:10;;;;;;;;;;;;;;;0.77;94.07;102817.81;4969467;28;1898;-88
2022/01/12 23:17:35;;;;;;;;;;;;;;;0.81;94.12;102822.72;4990912;28;1371;-87
2022/01/12 23:20:00;;;;;;;;;;;;;;;0.86;94.02;102824.91;4971582;28;1601;-87
2022/01/12 23:22:25;;;;;;;;;;;;;;;0.84;93.86;102827.78;4970190;28;1367;-86
2022/01/12 23:24:51;;;;;;;;;;;;;;;0.78;94.09;102833.78;4959296;28;1108;-88
2022/01/12 23:27:17;;;;;;;;;;;;;;;0.79;94.21;102834.66;4959297;28;1257;-87
2022/01/12 23:29:42;;;;;;;;;;;;;;;0.82;94.13;102835.19;4959235;28;1375;-87
2022/01/12 23:32:10;;;;;;;;;;;;;;;0.76;94.10;102830.44;4958745;28;1614;-87
2022/01/12 23:43:12;;;;;;;;;;;;;;;0.67;93.91;102831.38;4976279;28;1206;-87
2022/01/12 23:51:05;;;;;;;;;;;;;;;0.60;93.84;102859.94;4976263;28;673;-88
2022/01/12 23:58:54;;;;;;;;;;;;;;;0.59;93.78;102850.19;4982245;28;1362;-87
